PILOTS ONLINE: 406    ATC ONLINE: 73

SBUG

Rubem Berta Airport

Location

IATA URG
City Uruguaiana
Country  Brazil
Latitude 29° 46' 55" S
Longitude 57° 2' 17" W
Elevation 256 ft
Type Medium Airport

Map

Weather

METAR
2014/09/01 22:00
SBUG 012200Z 09010KT CAVOK 22/13 Q1008
TAF
2014/09/01 18:07
TAF SBUG 011500Z 0118/0218 06005KT CAVOK TX25/0118Z TN14/0209Z 
      TEMPO 0118/0122 08013KT PROB40 0208/0211 3000 BR NSC 
      RMK PCD

Runways

4/22 2625 ft / 164 ft
9/27 4921 ft / 98 ft

Outbound flights

Callsign Flying to Pilot ATD/STD ETA Aircraft

Inbound flights

Callsign Flying from Pilot ATD ETA Aircraft